Time;durP1;ratioP1;P1;durP2;ratioP2;P2;SDS_P1;SDS_P2;PMS_P1;PMS_P2;Temp;Humidity;BMP_temperature;BMP_pressure;BME280_temperature;BME280_humidity;BME280_pressure;Samples;Min_cycle;Max_cycle;Signal;HPM_P1;HPM_P2
2023/04/06 00:02:02;;;;;;;0.10;0.10;;;;;;;1.69;100.00;101867.59;10402538;28;20103;-78
2023/04/06 00:07:04;;;;;;;0.10;0.10;;;;;;;1.86;100.00;101868.91;10380189;28;20046;-78
2023/04/06 00:12:05;;;;;;;0.38;0.38;;;;;;;1.81;100.00;101863.47;10401805;28;20052;-78
2023/04/06 00:17:07;;;;;;;0.20;0.20;;;;;;;1.55;100.00;101851.28;10394144;28;20417;-78
2023/04/06 00:22:09;;;;;;;0.10;0.10;;;;;;;1.47;100.00;101850.69;10400501;28;20048;-79
2023/04/06 00:27:11;;;;;;;0.32;0.30;;;;;;;1.95;100.00;101850.94;10390764;28;20755;-78
2023/04/06 00:32:13;;;;;;;0.00;0.00;;;;;;;1.79;100.00;101842.13;10406716;28;20505;-78
2023/04/06 00:37:14;;;;;;;0.10;0.10;;;;;;;1.53;100.00;101824.88;10380619;28;20041;-79
2023/04/06 00:42:16;;;;;;;0.00;0.00;;;;;;;2.04;100.00;101834.72;10399861;28;20512;-79
2023/04/06 00:47:17;;;;;;;0.00;0.00;;;;;;;1.65;100.00;101827.50;10404015;28;20041;-79
2023/04/06 00:52:19;;;;;;;0.00;0.00;;;;;;;1.68;100.00;101827.69;10374308;28;20124;-79
2023/04/06 00:57:22;;;;;;;0.10;0.10;;;;;;;1.76;100.00;101825.78;10406562;28;20049;-78
2023/04/06 01:02:29;;;;;;;0.10;0.10;;;;;;;1.49;100.00;101830.50;10397298;28;20038;-78
2023/04/06 01:07:31;;;;;;;0.00;0.00;;;;;;;1.48;100.00;101814.38;10381080;28;20519;-79
2023/04/06 01:12:39;;;;;;;0.00;0.00;;;;;;;1.20;100.00;101811.31;10406538;28;20049;-78
2023/04/06 01:17:51;;;;;;;0.00;0.00;;;;;;;1.12;100.00;101798.03;10416411;28;20057;-78
2023/04/06 01:22:53;;;;;;;0.00;0.00;;;;;;;1.10;100.00;101800.47;10381303;28;20694;-79
2023/04/06 01:27:54;;;;;;;0.95;0.57;;;;;;;1.38;100.00;101796.63;10397112;28;20778;-78
2023/04/06 01:33:15;;;;;;;0.00;0.00;;;;;;;1.64;100.00;101795.22;10391757;28;20042;-78
2023/04/06 01:38:39;;;;;;;1.13;0.57;;;;;;;1.23;100.00;101797.22;10396338;28;20072;-78
2023/04/06 01:43:41;;;;;;;0.08;0.08;;;;;;;1.21;100.00;101793.69;10403072;28;20153;-79
2023/04/06 01:48:44;;;;;;;0.22;0.22;;;;;;;1.17;100.00;101784.06;10395500;28;20472;-79
2023/04/06 01:54:04;;;;;;;0.00;0.00;;;;;;;1.26;100.00;101791.53;10376308;28;20034;-79
2023/04/06 01:59:15;;;;;;;0.22;0.15;;;;;;;1.03;100.00;101783.00;10402449;28;20042;-79
2023/04/06 02:04:17;;;;;;;0.00;0.00;;;;;;;1.14;100.00;101771.13;10404674;28;20048;-79
2023/04/06 02:09:22;;;;;;;0.00;0.00;;;;;;;0.84;100.00;101770.50;10413592;28;20045;-79
2023/04/06 02:14:25;;;;;;;0.10;0.10;;;;;;;0.92;100.00;101759.31;10392147;28;20045;-79
2023/04/06 02:19:31;;;;;;;0.00;0.00;;;;;;;0.86;100.00;101763.88;10404541;28;20049;-78
2023/04/06 02:24:32;;;;;;;0.20;0.20;;;;;;;0.97;100.00;101766.38;10405714;28;20103;-79
2023/04/06 02:29:34;;;;;;;1.65;0.73;;;;;;;1.15;100.00;101764.41;10422317;28;20073;-79
2023/04/06 02:34:36;;;;;;;2.72;1.02;;;;;;;0.90;100.00;101759.94;10397143;28;20136;-78
2023/04/06 02:39:38;;;;;;;0.08;0.08;;;;;;;0.88;100.00;101758.94;10394361;28;20042;-78
2023/04/06 02:44:43;;;;;;;0.55;0.55;;;;;;;0.91;100.00;101752.47;10407332;28;20045;-78
2023/04/06 02:49:45;;;;;;;0.20;0.15;;;;;;;0.71;100.00;101755.06;10405285;28;20049;-79
2023/04/06 02:54:51;;;;;;;1.25;0.75;;;;;;;0.73;100.00;101743.38;10388190;28;20057;-78
2023/04/06 02:59:58;;;;;;;0.00;0.00;;;;;;;0.58;100.00;101741.41;10399328;28;20041;-79
2023/04/06 03:05:08;;;;;;;0.10;0.10;;;;;;;0.81;100.00;101737.25;10405592;28;20042;-78
2023/04/06 03:10:14;;;;;;;0.10;0.10;;;;;;;1.00;100.00;101741.25;10395258;28;20034;-79
2023/04/06 03:15:18;;;;;;;0.10;0.10;;;;;;;0.69;100.00;101738.84;10407407;28;20131;-78
2023/04/06 03:20:25;;;;;;;1.02;0.95;;;;;;;0.71;100.00;101733.13;10402865;28;20037;-78
2023/04/06 03:25:26;;;;;;;1.33;1.23;;;;;;;0.72;100.00;101734.00;10399295;28;20049;-78
2023/04/06 03:30:34;;;;;;;9.80;1.90;;;;;;;0.59;100.00;101725.44;10395596;28;20033;-79
2023/04/06 03:35:36;;;;;;;0.10;0.10;;;;;;;0.59;100.00;101725.44;10393745;28;20049;-79
2023/04/06 03:40:39;;;;;;;0.63;0.30;;;;;;;0.47;100.00;101724.47;10411963;28;20140;-78
2023/04/06 03:45:40;;;;;;;9.45;1.13;;;;;;;0.86;100.00;101722.41;10399799;28;20053;-79
2023/04/06 03:50:42;;;;;;;0.05;0.05;;;;;;;0.77;100.00;101717.50;10402385;28;20052;-79
2023/04/06 03:55:44;;;;;;;0.00;0.00;;;;;;;0.57;100.00;101714.25;10391184;28;20049;-79
2023/04/06 04:00:46;;;;;;;0.00;0.00;;;;;;;0.49;100.00;101725.44;10396191;28;20099;-79
2023/04/06 04:05:47;;;;;;;0.13;0.13;;;;;;;0.37;100.00;101715.22;10407516;28;20045;-79
2023/04/06 04:10:49;;;;;;;0.47;0.47;;;;;;;0.49;100.00;101722.91;10400480;28;20083;-80
2023/04/06 04:15:50;;;;;;;2.28;2.17;;;;;;;0.42;100.00;101718.09;10405109;28;20049;-80
2023/04/06 04:20:52;;;;;;;1.00;0.55;;;;;;;0.40;100.00;101729.81;10409496;28;20045;-79
2023/04/06 04:25:56;;;;;;;0.10;0.10;;;;;;;0.79;100.00;101721.03;10406569;28;20072;-79
2023/04/06 04:30:57;;;;;;;0.13;0.13;;;;;;;0.68;100.00;101719.31;10392546;28;20042;-79
2023/04/06 04:35:59;;;;;;;1.27;0.90;;;;;;;0.76;100.00;101725.88;10410239;28;20072;-79
2023/04/06 04:41:06;;;;;;;0.10;0.10;;;;;;;0.86;100.00;101718.22;10408306;28;20042;-79
2023/04/06 04:46:11;;;;;;;5.47;1.10;;;;;;;0.87;100.00;101719.09;10400106;28;20045;-80
2023/04/06 04:51:15;;;;;;;0.52;0.52;;;;;;;0.84;100.00;101719.75;10408137;28;20033;-79
2023/04/06 04:56:37;;;;;;;0.05;0.05;;;;;;;0.93;100.00;101725.53;10411357;28;20144;-81
2023/04/06 05:01:50;;;;;;;0.90;0.65;;;;;;;0.78;100.00;101719.28;10402912;28;20042;-79
2023/04/06 05:07:03;;;;;;;0.20;0.20;;;;;;;0.55;100.00;101723.44;10400406;28;20091;-80
2023/04/06 05:12:05;;;;;;;0.65;0.65;;;;;;;1.07;100.00;101723.22;10397025;28;20145;-81
2023/04/06 05:17:13;;;;;;;1.13;0.85;;;;;;;1.24;100.00;101725.38;10394113;28;20466;-83
2023/04/06 05:22:17;;;;;;;1.65;1.15;;;;;;;1.36;100.00;101730.50;10398616;28;20038;-81
2023/04/06 05:27:23;;;;;;;0.45;0.40;;;;;;;1.22;100.00;101724.38;10398348;28;20110;-81
2023/04/06 05:32:27;;;;;;;0.35;0.35;;;;;;;1.53;100.00;101720.75;10413361;28;20060;-82
2023/04/06 05:37:29;;;;;;;0.00;0.00;;;;;;;1.84;100.00;101712.91;10384286;28;20132;-80
2023/04/06 05:42:39;;;;;;;0.10;0.10;;;;;;;1.76;100.00;101713.97;10385476;28;20056;-82
2023/04/06 05:47:41;;;;;;;0.00;0.00;;;;;;;2.21;100.00;101715.59;10409154;28;20076;-78
2023/04/06 05:52:53;;;;;;;0.22;0.17;;;;;;;2.44;100.00;101722.34;10430033;28;20454;-79
2023/04/06 05:57:58;;;;;;;0.00;0.00;;;;;;;2.48;100.00;101715.81;10406762;28;20130;-80
2023/04/06 06:02:59;;;;;;;0.85;0.85;;;;;;;2.51;100.00;101710.97;10412466;28;20501;-80
2023/04/06 06:08:03;;;;;;;0.95;0.50;;;;;;;2.79;100.00;101708.69;10393042;28;20443;-81
2023/04/06 06:13:05;;;;;;;2.72;1.15;;;;;;;3.01;100.00;101710.22;10398090;28;20041;-80
2023/04/06 06:18:07;;;;;;;0.00;0.00;;;;;;;3.38;100.00;101702.56;10396978;28;20069;-79
2023/04/06 06:23:09;;;;;;;0.25;0.25;;;;;;;3.81;100.00;101699.44;10415862;28;20032;-80
2023/04/06 06:28:11;;;;;;;0.32;0.32;;;;;;;3.89;100.00;101698.28;10402210;28;20046;-79
2023/04/06 06:33:13;;;;;;;1.27;1.17;;;;;;;4.44;100.00;101700.09;10415621;28;20451;-79
2023/04/06 06:38:14;;;;;;;0.63;0.63;;;;;;;4.16;100.00;101698.34;10413470;28;20049;-79
2023/04/06 06:43:16;;;;;;;0.70;0.70;;;;;;;4.30;100.00;101704.31;10380285;28;20045;-80
2023/04/06 06:48:26;;;;;;;0.40;0.38;;;;;;;5.07;100.00;101705.66;10393584;28;20053;-81
2023/04/06 06:53:28;;;;;;;1.38;0.95;;;;;;;5.37;100.00;101687.88;10408168;28;20132;-79
2023/04/06 06:58:30;;;;;;;0.80;0.80;;;;;;;5.88;100.00;101686.59;10406560;28;20069;-79
2023/04/06 07:03:31;;;;;;;1.08;0.98;;;;;;;6.45;100.00;101681.31;10397433;28;20038;-79
2023/04/06 07:08:33;;;;;;;0.88;0.82;;;;;;;5.99;100.00;101687.28;10420793;28;20573;-79
2023/04/06 07:13:37;;;;;;;1.27;0.47;;;;;;;6.18;100.00;101675.53;10417210;28;20080;-79
2023/04/06 07:18:38;;;;;;;1.00;1.00;;;;;;;7.10;100.00;101678.78;10416152;28;20071;-79
2023/04/06 07:23:40;;;;;;;1.30;1.20;;;;;;;7.28;100.00;101664.34;10420597;28;20088;-79
2023/04/06 07:28:41;;;;;;;1.17;1.10;;;;;;;7.07;100.00;101669.25;10419400;28;20435;-79
2023/04/06 07:33:45;;;;;;;2.85;0.82;;;;;;;7.22;100.00;101671.72;10414222;28;20551;-78
2023/04/06 07:38:46;;;;;;;0.80;0.65;;;;;;;7.44;100.00;101665.13;10414901;28;20069;-79
2023/04/06 07:43:48;;;;;;;13.77;2.72;;;;;;;7.51;100.00;101662.06;10420100;28;20068;-78
2023/04/06 07:48:51;;;;;;;3.03;2.70;;;;;;;7.87;100.00;101664.69;10409193;28;20053;-78
2023/04/06 07:53:52;;;;;;;1.75;1.27;;;;;;;7.66;100.00;101656.84;10410067;28;20041;-78
2023/04/06 07:58:56;;;;;;;0.52;0.25;;;;;;;8.09;100.00;101652.91;10413490;28;20104;-79
2023/04/06 08:03:58;;;;;;;3.38;1.52;;;;;;;8.88;100.00;101644.63;10398351;28;20041;-79
2023/04/06 08:08:59;;;;;;;0.32;0.32;;;;;;;8.96;100.00;101642.38;10409829;28;20041;-78
2023/04/06 08:14:01;;;;;;;0.98;0.82;;;;;;;8.78;100.00;101639.88;10403577;28;20140;-77
2023/04/06 08:19:02;;;;;;;0.80;0.47;;;;;;;9.28;100.00;101634.31;10387099;28;20076;-78
2023/04/06 08:24:05;;;;;;;1.27;0.93;;;;;;;10.70;100.00;101637.41;10367807;28;20504;-78
2023/04/06 08:29:08;;;;;;;2.35;1.17;;;;;;;9.33;100.00;101630.28;10388975;28;20492;-78
2023/04/06 08:34:10;;;;;;;1.10;0.65;;;;;;;10.35;99.44;101631.78;10392818;28;20073;-78
2023/04/06 08:39:14;;;;;;;1.63;1.45;;;;;;;9.72;99.50;101632.72;10396764;28;20054;-78
2023/04/06 08:44:16;;;;;;;1.05;0.60;;;;;;;10.75;99.47;101620.44;10404261;28;20128;-78
2023/04/06 08:49:18;;;;;;;9.68;0.85;;;;;;;10.86;97.12;101617.38;10412519;28;20058;-78
2023/04/06 08:54:19;;;;;;;2.05;0.57;;;;;;;11.58;96.19;101613.81;10396568;28;20860;-78
2023/04/06 08:59:21;;;;;;;1.52;1.00;;;;;;;12.04;95.57;101610.19;10399631;28;20334;-78
2023/04/06 09:04:23;;;;;;;0.70;0.70;;;;;;;11.75;92.21;101617.84;10400993;28;20075;-77
2023/04/06 09:09:25;;;;;;;0.63;0.63;;;;;;;11.79;93.63;101618.81;10411551;28;20077;-77
2023/04/06 09:14:37;;;;;;;5.40;1.40;;;;;;;10.97;95.24;101613.50;10417933;28;20498;-77
2023/04/06 09:19:46;;;;;;;1.50;0.80;;;;;;;11.73;94.38;101603.13;10401719;28;20458;-78
2023/04/06 09:24:50;;;;;;;4.80;1.47;;;;;;;12.02;93.22;101600.63;10393975;28;20037;-78
2023/04/06 09:30:08;;;;;;;4.25;3.03;;;;;;;11.26;91.63;101595.56;10389273;28;20093;-77
2023/04/06 09:35:10;;;;;;;0.80;0.55;;;;;;;11.79;90.16;101592.13;10400104;28;20041;-77
2023/04/06 09:40:13;;;;;;;3.92;1.52;;;;;;;12.57;87.87;101588.47;10413517;28;20099;-77
2023/04/06 09:45:15;;;;;;;1.48;1.02;;;;;;;12.55;89.12;101592.72;10395587;28;20046;-77
2023/04/06 09:50:18;;;;;;;3.33;1.73;;;;;;;12.71;88.58;101586.31;10404323;28;20076;-77
2023/04/06 09:55:30;;;;;;;2.15;1.85;;;;;;;13.25;83.28;101590.31;10395143;28;20483;-77
2023/04/06 10:00:40;;;;;;;2.38;1.70;;;;;;;12.34;84.09;101588.69;10392931;28;20045;-77
2023/04/06 10:06:05;;;;;;;1.38;1.00;;;;;;;12.92;87.95;101578.22;10412043;28;20049;-77
2023/04/06 10:11:07;;;;;;;2.13;1.25;;;;;;;11.77;84.84;101578.28;10384175;28;20095;-77
2023/04/06 10:16:09;;;;;;;0.90;0.55;;;;;;;12.11;85.28;101574.19;10400580;28;20072;-77
2023/04/06 10:21:18;;;;;;;3.38;1.45;;;;;;;13.18;81.22;101575.47;10402267;28;20053;-78
2023/04/06 10:26:22;;;;;;;1.98;1.75;;;;;;;12.73;85.49;101571.72;10401337;28;20137;-78
2023/04/06 10:31:26;;;;;;;9.73;1.33;;;;;;;13.01;84.01;101573.31;10407691;28;20075;-77
2023/04/06 10:36:31;;;;;;;0.80;0.70;;;;;;;12.96;85.57;101574.91;10411661;28;20063;-77
2023/04/06 10:41:35;;;;;;;1.27;0.90;;;;;;;13.25;83.67;101574.81;10405241;28;20998;-78
2023/04/06 10:46:36;;;;;;;1.38;1.02;;;;;;;13.09;83.66;101570.06;10408679;28;20045;-78
2023/04/06 10:51:39;;;;;;;5.70;0.98;;;;;;;13.02;84.03;101566.44;10406136;28;20060;-77
2023/04/06 10:56:40;;;;;;;1.60;1.00;;;;;;;12.83;85.83;101552.16;10401346;28;20037;-77
2023/04/06 11:01:44;;;;;;;4.43;0.85;;;;;;;13.06;84.16;101562.22;10399861;28;20037;-77
2023/04/06 11:06:48;;;;;;;0.57;0.50;;;;;;;13.11;84.75;101565.81;10395206;28;20107;-78
2023/04/06 11:11:50;;;;;;;7.97;1.65;;;;;;;13.10;85.88;101561.47;10398726;28;20081;-78
2023/04/06 11:16:51;;;;;;;1.20;1.10;;;;;;;12.65;86.68;101552.53;10391112;28;20124;-77
2023/04/06 11:21:53;;;;;;;5.63;1.75;;;;;;;12.62;88.33;101555.88;10389978;28;20056;-78
2023/04/06 11:26:57;;;;;;;0.73;0.60;;;;;;;12.79;90.43;101550.31;10406830;28;20057;-78
2023/04/06 11:32:03;;;;;;;2.55;1.52;;;;;;;12.39;90.94;101570.75;10405532;28;20045;-80
2023/04/06 11:37:10;;;;;;;2.47;1.30;;;;;;;12.24;89.58;101562.53;10420932;28;20124;-80
2023/04/06 11:42:11;;;;;;;4.10;1.55;;;;;;;12.60;93.52;101569.59;10418745;28;20121;-79
2023/04/06 11:47:13;;;;;;;3.47;2.15;;;;;;;11.92;93.56;101568.44;10389503;28;20132;-80
2023/04/06 11:52:16;;;;;;;2.60;1.30;;;;;;;12.25;94.98;101560.00;10411234;28;20043;-79
2023/04/06 11:57:19;;;;;;;1.67;1.13;;;;;;;11.49;93.54;101561.94;10412727;28;20054;-79
2023/04/06 12:02:20;;;;;;;3.30;1.38;;;;;;;12.02;93.26;101560.19;10406473;28;20608;-79
2023/04/06 12:07:22;;;;;;;0.68;0.68;;;;;;;11.83;93.60;101563.88;10397450;28;20124;-79
2023/04/06 12:12:23;;;;;;;0.75;0.73;;;;;;;12.21;92.76;101564.19;10372276;28;20042;-79
2023/04/06 12:17:25;;;;;;;2.63;0.55;;;;;;;12.03;94.77;101564.50;10397661;28;20038;-79
2023/04/06 12:22:27;;;;;;;3.03;0.50;;;;;;;12.27;94.92;101560.91;10391556;28;20037;-79
2023/04/06 12:27:28;;;;;;;1.52;0.55;;;;;;;12.44;93.59;101557.97;10399706;28;20065;-79
2023/04/06 12:32:30;;;;;;;1.90;1.40;;;;;;;12.06;93.00;101556.88;10406356;28;20136;-78
2023/04/06 12:37:31;;;;;;;1.17;1.00;;;;;;;12.01;95.17;101548.13;10396780;28;20041;-79
2023/04/06 12:42:33;;;;;;;4.28;1.70;;;;;;;12.49;94.68;101536.59;10407061;28;20476;-80
2023/04/06 12:47:35;;;;;;;1.42;0.93;;;;;;;12.41;96.84;101539.75;10410081;28;20572;-80
2023/04/06 12:52:37;;;;;;;2.92;1.00;;;;;;;12.46;94.81;101527.88;10393202;28;20041;-80
2023/04/06 12:57:38;;;;;;;1.63;1.05;;;;;;;12.32;94.27;101542.97;10409977;28;20059;-80
2023/04/06 13:02:46;;;;;;;2.17;0.82;;;;;;;12.05;99.15;101543.91;10408812;28;20406;-80
2023/04/06 13:07:48;;;;;;;1.95;1.02;;;;;;;12.04;100.00;101537.88;10386686;28;20115;-80
2023/04/06 13:12:50;;;;;;;2.10;1.38;;;;;;;11.64;99.33;101539.19;10397824;28;20107;-80
2023/04/06 13:17:52;;;;;;;0.50;0.50;;;;;;;11.80;100.00;101540.53;10391893;28;20042;-81
2023/04/06 13:22:56;;;;;;;0.63;0.60;;;;;;;11.99;100.00;101539.44;10405446;28;20092;-80
2023/04/06 13:27:58;;;;;;;1.50;1.27;;;;;;;11.47;100.00;101542.94;10391329;28;20223;-80
2023/04/06 13:33:01;;;;;;;0.95;0.57;;;;;;;11.06;100.00;101556.19;10384216;28;20038;-80
2023/04/06 13:38:02;;;;;;;1.35;0.75;;;;;;;10.62;100.00;101553.78;10394714;28;20045;-81
2023/04/06 13:43:04;;;;;;;0.45;0.38;;;;;;;10.47;100.00;101565.31;10391022;28;20045;-81
2023/04/06 13:48:05;;;;;;;1.45;0.68;;;;;;;10.07;100.00;101573.19;10399089;28;20037;-80
2023/04/06 13:53:07;;;;;;;0.32;0.32;;;;;;;9.66;100.00;101568.16;10395496;28;20121;-80
2023/04/06 13:58:09;;;;;;;0.50;0.50;;;;;;;9.51;100.00;101553.84;10399305;28;20051;-81
2023/04/06 14:03:10;;;;;;;0.60;0.47;;;;;;;9.79;100.00;101541.22;10395090;28;20041;-80
2023/04/06 14:08:12;;;;;;;0.90;0.68;;;;;;;9.33;100.00;101529.97;10394650;28;20057;-80
2023/04/06 14:13:13;;;;;;;2.25;0.70;;;;;;;9.18;100.00;101546.53;10372849;28;20048;-80
2023/04/06 14:18:15;;;;;;;7.90;0.93;;;;;;;9.20;100.00;101538.88;10406241;28;20052;-79
2023/04/06 14:23:17;;;;;;;2.55;0.65;;;;;;;9.09;100.00;101538.41;10416627;28;20061;-81
2023/04/06 14:28:20;;;;;;;0.25;0.25;;;;;;;8.80;100.00;101538.06;10395924;28;20073;-81
2023/04/06 14:33:22;;;;;;;0.28;0.28;;;;;;;8.93;100.00;101539.47;10385056;28;20045;-80
2023/04/06 14:38:23;;;;;;;0.57;0.40;;;;;;;9.16;100.00;101526.69;10399794;28;20184;-80
2023/04/06 14:43:25;;;;;;;0.68;0.47;;;;;;;8.99;100.00;101526.88;10398918;28;20047;-81
2023/04/06 14:48:27;;;;;;;0.75;0.38;;;;;;;8.77;100.00;101512.22;10405184;28;20140;-81
2023/04/06 14:53:29;;;;;;;1.13;0.98;;;;;;;8.69;100.00;101506.75;10389049;28;20134;-80
2023/04/06 14:58:31;;;;;;;15.35;0.73;;;;;;;8.54;100.00;101503.53;10393066;28;20123;-81
2023/04/06 15:03:32;;;;;;;0.77;0.52;;;;;;;8.67;100.00;101502.38;10390204;28;20501;-81
2023/04/06 15:08:34;;;;;;;0.03;0.03;;;;;;;8.66;100.00;101495.47;10383655;28;20058;-80
2023/04/06 15:13:36;;;;;;;1.45;0.82;;;;;;;8.61;100.00;101491.81;10392220;28;20092;-80
2023/04/06 15:18:37;;;;;;;0.80;0.55;;;;;;;8.65;100.00;101484.31;10403429;28;20520;-80
2023/04/06 15:23:39;;;;;;;0.20;0.20;;;;;;;8.55;100.00;101483.03;10401214;28;20112;-79
2023/04/06 15:28:40;;;;;;;0.28;0.28;;;;;;;8.87;100.00;101468.13;10394933;28;20132;-81
2023/04/06 15:33:42;;;;;;;0.68;0.68;;;;;;;8.40;100.00;101464.34;10392557;28;20076;-80
2023/04/06 15:38:45;;;;;;;0.28;0.17;;;;;;;8.60;100.00;101442.16;10396635;28;20045;-80
2023/04/06 15:43:48;;;;;;;0.32;0.32;;;;;;;8.56;100.00;101441.13;10382809;28;20041;-80
2023/04/06 15:48:49;;;;;;;0.63;0.63;;;;;;;8.45;100.00;101433.75;10405329;28;20069;-80
2023/04/06 15:53:51;;;;;;;0.68;0.30;;;;;;;8.74;100.00;101414.47;10409970;28;20121;-80
2023/04/06 15:58:52;;;;;;;1.38;1.13;;;;;;;8.71;100.00;101404.06;10389122;28;20512;-80
2023/04/06 16:03:54;;;;;;;0.30;0.28;;;;;;;8.72;100.00;101398.13;10387541;28;20048;-81
2023/04/06 16:08:56;;;;;;;0.93;0.82;;;;;;;8.77;100.00;101376.06;10401263;28;20145;-80
2023/04/06 16:13:58;;;;;;;1.75;0.68;;;;;;;8.86;100.00;101363.59;10390448;28;20408;-80
2023/04/06 16:19:00;;;;;;;0.32;0.32;;;;;;;8.67;100.00;101358.53;10397195;28;20100;-80
2023/04/06 16:24:03;;;;;;;0.38;0.38;;;;;;;8.54;100.00;101367.41;10405148;28;20049;-80
2023/04/06 16:29:05;;;;;;;1.90;1.50;;;;;;;8.68;100.00;101353.44;10395884;28;20385;-81
2023/04/06 16:34:06;;;;;;;1.58;1.20;;;;;;;8.65;100.00;101357.59;10407288;28;20076;-80
2023/04/06 16:39:09;;;;;;;0.50;0.50;;;;;;;8.85;100.00;101351.56;10399420;28;20606;-80
2023/04/06 16:44:11;;;;;;;2.60;1.33;;;;;;;8.83;100.00;101340.34;10401847;28;20130;-80
2023/04/06 16:49:13;;;;;;;0.77;0.68;;;;;;;8.90;100.00;101338.91;10388492;28;20091;-80
2023/04/06 16:54:15;;;;;;;4.97;1.83;;;;;;;8.60;100.00;101329.13;10381824;28;20121;-79
2023/04/06 16:59:16;;;;;;;2.85;1.60;;;;;;;8.64;100.00;101323.28;10395851;28;20120;-80
2023/04/06 17:04:18;;;;;;;3.75;1.90;;;;;;;8.77;100.00;101306.69;10397648;28;20043;-79
2023/04/06 17:09:20;;;;;;;5.95;2.50;;;;;;;8.60;100.00;101307.72;10386997;28;20050;-80
2023/04/06 17:14:23;;;;;;;1.90;1.17;;;;;;;8.70;100.00;101299.56;10392038;28;20034;-80
2023/04/06 17:19:25;;;;;;;1.27;1.05;;;;;;;8.52;100.00;101295.47;10393511;28;20088;-80
2023/04/06 17:24:27;;;;;;;2.28;0.90;;;;;;;8.42;100.00;101288.16;10387496;28;20470;-79
2023/04/06 17:29:28;;;;;;;1.52;1.42;;;;;;;8.45;100.00;101279.69;10382764;28;20119;-79
2023/04/06 17:34:30;;;;;;;1.92;1.38;;;;;;;8.42;100.00;101277.88;10391183;28;20034;-79
2023/04/06 17:39:31;;;;;;;1.27;1.08;;;;;;;8.36;100.00;101278.50;10387860;28;20041;-79
2023/04/06 17:44:33;;;;;;;0.63;0.35;;;;;;;8.26;100.00;101281.50;10387815;28;20061;-79
2023/04/06 17:49:35;;;;;;;0.93;0.52;;;;;;;8.35;100.00;101275.88;10392582;28;20393;-79
2023/04/06 17:54:36;;;;;;;0.25;0.25;;;;;;;8.45;100.00;101262.56;10399069;28;20050;-79
2023/04/06 17:59:38;;;;;;;0.63;0.60;;;;;;;8.43;100.00;101259.09;10402074;28;20053;-80
2023/04/06 18:04:44;;;;;;;1.73;0.60;;;;;;;8.35;100.00;101256.19;10403323;28;20064;-79
2023/04/06 18:09:46;;;;;;;2.63;0.73;;;;;;;8.22;100.00;101259.97;10411350;28;20045;-79
2023/04/06 18:14:47;;;;;;;2.97;1.20;;;;;;;8.37;100.00;101249.44;10388706;28;20073;-79
2023/04/06 18:19:49;;;;;;;1.95;1.10;;;;;;;8.39;100.00;101240.13;10426460;28;20045;-80
2023/04/06 18:24:50;;;;;;;2.85;0.93;;;;;;;8.34;100.00;101238.16;10390701;28;20061;-79
2023/04/06 18:29:52;;;;;;;0.60;0.60;;;;;;;8.07;100.00;101231.97;10401121;28;20053;-79
2023/04/06 18:34:56;;;;;;;0.85;0.47;;;;;;;8.42;100.00;101190.56;10410685;28;20046;-80
2023/04/06 18:39:58;;;;;;;1.25;1.15;;;;;;;8.57;100.00;101175.81;10400014;28;20057;-78
2023/04/06 18:44:59;;;;;;;0.43;0.40;;;;;;;8.42;100.00;101165.75;10385489;28;20475;-79
2023/04/06 18:50:01;;;;;;;1.38;0.95;;;;;;;8.55;100.00;101167.16;10398137;28;20520;-79
2023/04/06 18:55:03;;;;;;;0.43;0.43;;;;;;;8.75;100.00;101169.59;10397272;28;20535;-79
2023/04/06 19:00:05;;;;;;;1.35;0.40;;;;;;;8.69;100.00;101154.84;10392599;28;20120;-79
2023/04/06 19:05:09;;;;;;;6.65;3.70;;;;;;;8.61;100.00;101145.06;10384064;28;20061;-79
2023/04/06 19:10:11;;;;;;;2.55;1.50;;;;;;;8.48;100.00;101139.50;10393793;28;20404;-79
2023/04/06 19:15:15;;;;;;;1.38;1.08;;;;;;;8.41;100.00;101135.75;10393283;28;20041;-79
2023/04/06 19:20:16;;;;;;;2.10;1.75;;;;;;;8.44;100.00;101139.28;10385270;28;20121;-80
2023/04/06 19:25:18;;;;;;;2.10;1.75;;;;;;;8.37;100.00;101130.47;10389354;28;20217;-78
2023/04/06 19:30:20;;;;;;;0.63;0.63;;;;;;;8.45;100.00;101129.06;10390394;28;20073;-78
2023/04/06 19:35:21;;;;;;;1.27;0.80;;;;;;;8.23;100.00;101133.34;10389124;28;20114;-78
2023/04/06 19:40:23;;;;;;;2.17;1.25;;;;;;;9.31;100.00;101115.91;10393232;28;20744;-79
2023/04/06 19:45:24;;;;;;;2.85;1.63;;;;;;;9.09;100.00;101128.84;10383966;28;20112;-78
2023/04/06 19:50:26;;;;;;;3.15;1.83;;;;;;;8.81;100.00;101133.88;10381973;28;20165;-79
2023/04/06 19:55:28;;;;;;;3.00;1.95;;;;;;;8.66;100.00;101133.31;10382266;28;20065;-79
2023/04/06 20:00:29;;;;;;;1.92;1.38;;;;;;;8.97;100.00;101126.72;10392279;28;20042;-79
2023/04/06 20:05:31;;;;;;;5.07;1.88;;;;;;;8.95;100.00;101130.94;10386180;28;20514;-78
2023/04/06 20:10:32;;;;;;;0.57;0.57;;;;;;;9.01;100.00;101141.44;10392159;28;20049;-79
2023/04/06 20:15:37;;;;;;;1.27;0.80;;;;;;;9.29;100.00;101142.41;10398722;28;20037;-79
2023/04/06 20:20:38;;;;;;;1.70;1.42;;;;;;;9.07;100.00;101140.78;10385909;28;20056;-79
2023/04/06 20:25:40;;;;;;;1.42;0.68;;;;;;;9.50;100.00;101144.84;10403142;28;20046;-79
2023/04/06 20:30:42;;;;;;;1.02;0.95;;;;;;;9.13;100.00;101139.28;10399166;28;20099;-79
2023/04/06 20:35:43;;;;;;;3.15;2.17;;;;;;;9.17;100.00;101136.03;10390335;28;20046;-79
2023/04/06 20:40:45;;;;;;;3.92;1.35;;;;;;;9.23;100.00;101131.91;10387278;28;20137;-79
2023/04/06 20:46:00;;;;;;;1.38;1.13;;;;;;;9.24;100.00;101128.53;10393597;28;20596;-78
2023/04/06 20:51:03;;;;;;;1.30;0.93;;;;;;;9.35;100.00;101127.19;10391695;28;20045;-79
2023/04/06 20:56:05;;;;;;;2.50;1.48;;;;;;;9.21;100.00;101126.72;10406299;28;20745;-79
2023/04/06 21:01:13;;;;;;;1.02;0.75;;;;;;;9.15;100.00;101123.94;10405734;28;20049;-78
2023/04/06 21:06:15;;;;;;;1.55;1.45;;;;;;;9.17;100.00;101120.59;10402653;28;20041;-78
2023/04/06 21:11:16;;;;;;;0.75;0.47;;;;;;;9.26;100.00;101122.59;10404351;28;20059;-78
2023/04/06 21:16:18;;;;;;;2.42;0.38;;;;;;;9.36;100.00;101118.66;10387294;28;20084;-78
2023/04/06 21:21:20;;;;;;;2.20;1.10;;;;;;;9.32;100.00;101116.81;10402017;28;20427;-78
2023/04/06 21:26:21;;;;;;;0.77;0.77;;;;;;;9.45;100.00;101111.25;10405304;28;20040;-79
2023/04/06 21:31:23;;;;;;;2.55;0.90;;;;;;;9.28;100.00;101110.69;10388892;28;20128;-78
2023/04/06 21:36:25;;;;;;;5.63;2.92;;;;;;;9.44;100.00;101100.91;10395364;28;20049;-78
2023/04/06 21:41:30;;;;;;;2.05;0.85;;;;;;;9.14;100.00;101102.47;10391287;28;20124;-78
2023/04/06 21:46:32;;;;;;;0.68;0.47;;;;;;;9.22;100.00;101105.34;10408596;28;20044;-78
2023/04/06 21:51:33;;;;;;;2.58;0.75;;;;;;;9.11;100.00;101104.97;10403825;28;20045;-77
2023/04/06 21:56:35;;;;;;;2.08;0.63;;;;;;;9.43;100.00;101094.88;10378002;28;20100;-78
2023/04/06 22:01:38;;;;;;;0.93;0.30;;;;;;;9.14;100.00;101102.47;10391353;28;20074;-78
2023/04/06 22:06:40;;;;;;;1.38;1.27;;;;;;;9.19;100.00;101100.97;10420109;28;20077;-78
2023/04/06 22:11:42;;;;;;;0.77;0.77;;;;;;;9.17;100.00;101092.31;10407527;28;20042;-79
2023/04/06 22:16:43;;;;;;;0.88;0.75;;;;;;;9.28;100.00;101082.41;10402119;28;20043;-79
2023/04/06 22:21:45;;;;;;;0.43;0.38;;;;;;;9.16;100.00;101089.66;10398044;28;20127;-78
2023/04/06 22:26:47;;;;;;;0.35;0.35;;;;;;;9.30;100.00;101082.44;10392934;28;20120;-79
2023/04/06 22:31:48;;;;;;;0.85;0.47;;;;;;;9.49;100.00;101074.50;10402740;28;20092;-78
2023/04/06 22:36:50;;;;;;;5.75;1.58;;;;;;;9.47;100.00;101076.19;10404424;28;20056;-78
2023/04/06 22:41:51;;;;;;;0.63;0.60;;;;;;;9.58;100.00;101084.25;10407518;28;20141;-79
2023/04/06 22:46:53;;;;;;;0.50;0.50;;;;;;;9.62;100.00;101106.66;10412678;28;20061;-79
2023/04/06 22:51:55;;;;;;;14.95;0.77;;;;;;;9.76;100.00;101094.25;10406736;28;20504;-78
2023/04/06 22:56:56;;;;;;;1.27;0.52;;;;;;;9.52;100.00;101099.50;10397120;28;20193;-79
2023/04/06 23:01:58;;;;;;;1.30;0.73;;;;;;;9.67;100.00;101101.69;10392616;28;20076;-78
2023/04/06 23:07:00;;;;;;;1.67;1.08;;;;;;;9.86;100.00;101104.88;10388173;28;20133;-79
2023/04/06 23:12:01;;;;;;;1.27;0.60;;;;;;;9.85;100.00;101114.25;10396124;28;20113;-79